Time;durP1;ratioP1;P1;durP2;ratioP2;P2;SDS_P1;SDS_P2;PMS_P1;PMS_P2;Temp;Humidity;BMP_temperature;BMP_pressure;BME280_temperature;BME280_humidity;BME280_pressure;Samples;Min_cycle;Max_cycle;Signal;HPM_P1;HPM_P2
2023/01/21 00:01:08;;;;;;;15.27;10.27;;;2.10;79.50;;;;;;5068872;28;20020;-72
2023/01/21 00:03:34;;;;;;;13.93;9.60;;;2.10;79.50;;;;;;5094347;28;20051;-73
2023/01/21 00:06:00;;;;;;;17.35;10.27;;;2.10;79.50;;;;;;5094767;28;20427;-72
2023/01/21 00:08:26;;;;;;;18.75;9.40;;;2.10;79.50;;;;;;5084286;28;20027;-73
2023/01/21 00:10:53;;;;;;;13.60;8.13;;;2.10;79.60;;;;;;5092843;28;20441;-73
2023/01/21 00:13:18;;;;;;;12.70;8.68;;;2.10;79.60;;;;;;5065225;28;20028;-72
2023/01/21 00:15:44;;;;;;;17.50;8.15;;;2.10;79.60;;;;;;5076391;28;20035;-73
2023/01/21 00:18:10;;;;;;;15.10;10.05;;;2.00;79.70;;;;;;5078366;28;20032;-73
2023/01/21 00:20:36;;;;;;;13.80;9.32;;;2.00;79.70;;;;;;5109264;28;20031;-73
2023/01/21 00:23:02;;;;;;;14.10;8.25;;;2.00;79.70;;;;;;5098061;28;20056;-72
2023/01/21 00:25:28;;;;;;;16.02;8.90;;;2.00;79.70;;;;;;5081029;28;20100;-72
2023/01/21 00:27:54;;;;;;;16.50;9.63;;;2.00;79.80;;;;;;5090480;28;20028;-74
2023/01/21 00:30:20;;;;;;;17.23;9.63;;;2.00;79.80;;;;;;5088701;28;20040;-72
2023/01/21 00:32:46;;;;;;;15.38;10.15;;;2.10;79.80;;;;;;5097770;28;20027;-73
2023/01/21 00:35:12;;;;;;;18.35;8.95;;;2.00;79.80;;;;;;5106998;28;20108;-73
2023/01/21 00:37:38;;;;;;;12.27;8.38;;;2.00;79.90;;;;;;5107190;28;20157;-73
2023/01/21 00:40:07;;;;;;;20.83;9.98;;;2.10;79.90;;;;;;5113235;28;20119;-73
2023/01/21 00:42:33;;;;;;;16.30;8.77;;;2.10;79.90;;;;;;5082558;28;20417;-73
2023/01/21 00:44:59;;;;;;;17.00;9.27;;;2.00;79.80;;;;;;5112523;28;20031;-73
2023/01/21 00:47:24;;;;;;;14.60;8.18;;;2.00;79.80;;;;;;5099373;28;20043;-66
2023/01/21 00:49:50;;;;;;;14.20;7.60;;;2.00;79.70;;;;;;5092517;28;20034;-65
2023/01/21 00:52:16;;;;;;;16.60;8.00;;;2.00;79.80;;;;;;5103159;28;20032;-68
2023/01/21 00:54:41;;;;;;;10.23;7.32;;;2.00;79.80;;;;;;5104743;28;20034;-66
2023/01/21 00:57:07;;;;;;;10.63;8.00;;;2.00;79.80;;;;;;5111445;28;20459;-72
2023/01/21 00:59:33;;;;;;;14.30;8.48;;;2.00;79.90;;;;;;5094713;28;20031;-63
2023/01/21 01:01:58;;;;;;;14.10;7.90;;;2.00;79.90;;;;;;5106857;28;20497;-73
2023/01/21 01:04:24;;;;;;;14.20;8.23;;;1.90;79.80;;;;;;5094770;28;20378;-63
2023/01/21 01:06:50;;;;;;;12.38;7.95;;;1.90;79.80;;;;;;5098571;28;21205;-73
2023/01/21 01:09:16;;;;;;;13.50;8.95;;;1.90;79.70;;;;;;5075889;28;20032;-62
2023/01/21 01:11:42;;;;;;;12.75;7.82;;;1.90;79.70;;;;;;5092036;28;20089;-63
2023/01/21 01:14:07;;;;;;;13.00;6.90;;;1.90;79.70;;;;;;5101207;28;20421;-63
2023/01/21 01:16:33;;;;;;;15.38;6.80;;;1.90;79.80;;;;;;5093716;28;20039;-63
2023/01/21 01:18:59;;;;;;;8.88;6.32;;;1.80;79.80;;;;;;5097651;28;20103;-62
2023/01/21 01:21:24;;;;;;;12.13;8.15;;;1.90;79.80;;;;;;5093987;28;20107;-63
2023/01/21 01:23:51;;;;;;;15.70;7.28;;;1.80;79.80;;;;;;5084608;28;20061;-63
2023/01/21 01:26:18;;;;;;;11.80;8.38;;;1.80;79.80;;;;;;5096405;28;20061;-73
2023/01/21 01:28:44;;;;;;;16.25;8.43;;;1.80;79.80;;;;;;5080210;28;20028;-73
2023/01/21 01:31:15;;;;;;;15.25;8.00;;;1.80;79.80;;;;;;5103637;28;20479;-73
2023/01/21 01:33:41;;;;;;;14.03;7.67;;;1.80;79.90;;;;;;5092684;28;20457;-73
2023/01/21 01:36:14;;;;;;;11.00;6.93;;;1.70;79.80;;;;;;5090837;28;20029;-74
2023/01/21 01:38:39;;;;;;;;;;;1.70;79.90;;;;;;5093987;28;20020;-74
2023/01/21 01:41:05;;;;;;;14.30;6.75;;;1.70;79.80;;;;;;5081663;28;19938;-74
2023/01/21 01:43:54;;;;;;;11.82;7.78;;;1.60;79.90;;;;;;5098389;28;20109;-74
2023/01/21 01:46:21;;;;;;;14.57;8.88;;;1.70;79.90;;;;;;5087161;28;20413;-74
2023/01/21 01:49:05;;;;;;;13.23;7.63;;;1.60;80.10;;;;;;5086198;28;20051;-73
2023/01/21 01:51:40;;;;;;;12.57;6.65;;;1.60;80.10;;;;;;5101840;28;20031;-63
2023/01/21 01:54:08;;;;;;;12.50;8.18;;;1.60;80.10;;;;;;5093022;28;20039;-63
2023/01/21 01:56:37;;;;;;;15.90;6.88;;;1.60;80.20;;;;;;5094949;28;20044;-73
2023/01/21 01:59:03;;;;;;;11.07;7.45;;;1.60;80.20;;;;;;5095339;28;20095;-74
2023/01/21 02:01:28;;;;;;;12.63;7.70;;;1.60;80.20;;;;;;5096852;28;20119;-73
2023/01/21 02:03:58;;;;;;;11.68;7.65;;;1.60;80.20;;;;;;5092559;28;20028;-62
2023/01/21 02:06:25;;;;;;;16.63;8.70;;;1.60;80.10;;;;;;5100003;28;20032;-73
2023/01/21 02:08:51;;;;;;;9.50;7.70;;;1.50;80.10;;;;;;5073777;28;20024;-63
2023/01/21 02:11:18;;;;;;;9.93;7.55;;;1.50;80.20;;;;;;5076187;28;20028;-63
2023/01/21 02:13:52;;;;;;;13.40;7.80;;;1.60;80.20;;;;;;5091677;28;20040;-73
2023/01/21 02:16:57;;;;;;;13.55;9.50;;;1.60;80.20;;;;;;5093847;28;20028;-73
2023/01/21 02:19:31;;;;;;;15.23;8.82;;;1.60;80.10;;;;;;5092557;28;20072;-73
2023/01/21 02:22:17;;;;;;;14.48;7.20;;;1.50;80.30;;;;;;5099739;28;20035;-72
2023/01/21 02:25:01;;;;;;;9.88;7.15;;;1.50;80.30;;;;;;5097507;28;20040;-73
2023/01/21 02:27:47;;;;;;;18.23;9.07;;;1.50;80.40;;;;;;5086078;28;20036;-73
2023/01/21 02:30:28;;;;;;;20.70;7.68;;;1.50;80.40;;;;;;5093412;28;20108;-73
2023/01/21 02:33:18;;;;;;;11.43;7.38;;;1.50;80.40;;;;;;5099299;28;20051;-73
2023/01/21 02:36:12;;;;;;;11.38;6.80;;;1.50;80.40;;;;;;5106356;28;20062;-74
2023/01/21 02:38:43;;;;;;;10.90;7.43;;;1.40;80.40;;;;;;5102362;28;20024;-73
2023/01/21 02:41:36;;;;;;;12.23;6.97;;;1.40;80.50;;;;;;5102291;28;20091;-73
2023/01/21 02:44:16;;;;;;;17.00;6.93;;;1.40;80.50;;;;;;5101525;28;20593;-73
2023/01/21 02:46:58;;;;;;;13.63;7.47;;;1.40;80.60;;;;;;5087975;28;20554;-73
2023/01/21 02:49:59;;;;;;;8.97;6.47;;;1.40;80.60;;;;;;5072897;28;20032;-73
2023/01/21 02:52:25;;;;;;;7.40;5.97;;;1.40;80.60;;;;;;5080989;28;20475;-73
2023/01/21 02:54:54;;;;;;;10.55;6.78;;;1.30;80.70;;;;;;5091457;28;20383;-73
2023/01/21 02:57:46;;;;;;;13.23;7.80;;;1.30;80.60;;;;;;5084435;28;20023;-73
2023/01/21 03:00:21;;;;;;;10.18;6.72;;;1.40;80.70;;;;;;5087975;28;20127;-73
2023/01/21 03:03:12;;;;;;;12.80;7.47;;;1.30;80.70;;;;;;5088061;28;20054;-73
2023/01/21 03:05:56;;;;;;;10.15;6.60;;;1.40;80.60;;;;;;5088345;28;20516;-73
2023/01/21 03:08:31;;;;;;;9.63;6.68;;;1.30;80.70;;;;;;5107410;28;20031;-73
2023/01/21 03:11:13;;;;;;;11.73;7.35;;;1.40;80.70;;;;;;5109094;28;20032;-73
2023/01/21 03:16:56;;;;;;;8.75;6.88;;;1.40;80.60;;;;;;5106962;28;20398;-72
2023/01/21 03:19:41;;;;;;;11.43;7.32;;;1.40;80.60;;;;;;5098706;28;20425;-73
2023/01/21 03:22:17;;;;;;;10.52;7.20;;;1.30;80.60;;;;;;5090825;28;20031;-62
2023/01/21 03:24:47;;;;;;;9.27;7.57;;;1.40;80.60;;;;;;5109607;28;20562;-63
2023/01/21 03:27:16;;;;;;;14.20;7.72;;;1.30;80.50;;;;;;5097607;28;20028;-63
2023/01/21 03:29:45;;;;;;;10.77;6.97;;;1.30;80.50;;;;;;5089997;28;20056;-63
2023/01/21 03:32:15;;;;;;;13.98;6.93;;;1.30;80.60;;;;;;5109070;28;20038;-62
2023/01/21 03:34:46;;;;;;;11.77;7.78;;;1.30;80.60;;;;;;5098523;28;20028;-62
2023/01/21 03:37:31;;;;;;;12.60;7.93;;;1.30;80.70;;;;;;5091029;28;20039;-62
2023/01/21 03:40:07;;;;;;;15.85;9.15;;;1.30;80.80;;;;;;5084964;28;20367;-62
2023/01/21 03:42:32;;;;;;;13.38;8.05;;;1.30;80.80;;;;;;5088938;28;20034;-63
2023/01/21 03:44:58;;;;;;;12.80;8.90;;;1.30;80.80;;;;;;5091336;28;20031;-63
2023/01/21 03:47:32;;;;;;;16.50;8.50;;;1.30;80.70;;;;;;5088583;28;20032;-63
2023/01/21 03:50:09;;;;;;;13.07;7.90;;;1.30;80.70;;;;;;5104080;28;20030;-62
2023/01/21 03:52:39;;;;;;;18.15;8.15;;;1.30;80.70;;;;;;5085704;28;20020;-63
2023/01/21 03:55:05;;;;;;;13.65;8.02;;;1.30;80.70;;;;;;5101907;28;20031;-63
2023/01/21 03:57:31;;;;;;;13.52;7.70;;;1.30;80.70;;;;;;5099388;28;20462;-63
2023/01/21 03:59:57;;;;;;;15.48;8.70;;;1.30;80.60;;;;;;5098555;28;20104;-62
2023/01/21 04:02:22;;;;;;;16.55;9.27;;;1.30;80.50;;;;;;5099379;28;20032;-63
2023/01/21 04:04:48;;;;;;;13.63;7.22;;;1.30;80.50;;;;;;5094403;28;20066;-63
2023/01/21 04:07:15;;;;;;;17.17;8.40;;;1.30;80.50;;;;;;5097027;28;20043;-73
2023/01/21 04:09:41;;;;;;;16.48;7.10;;;1.30;80.50;;;;;;5093116;28;20032;-73
2023/01/21 04:12:07;;;;;;;14.98;8.02;;;1.20;80.50;;;;;;5079352;28;20062;-73
2023/01/21 04:14:33;;;;;;;13.10;7.97;;;1.20;80.60;;;;;;5090770;28;20459;-77
2023/01/21 04:16:58;;;;;;;12.52;7.45;;;1.20;80.60;;;;;;5070763;28;20024;-73
2023/01/21 04:19:24;;;;;;;10.80;7.70;;;1.20;80.70;;;;;;5101518;28;20027;-72
2023/01/21 04:21:50;;;;;;;14.73;7.63;;;1.20;80.70;;;;;;5095315;28;20040;-62
2023/01/21 04:24:15;;;;;;;15.30;8.77;;;1.20;80.70;;;;;;5100153;28;20052;-74
2023/01/21 04:26:41;;;;;;;14.20;8.10;;;1.20;80.90;;;;;;5070557;28;20047;-74
2023/01/21 04:29:07;;;;;;;12.77;8.10;;;1.20;81.50;;;;;;5078731;28;20060;-63
2023/01/21 04:31:32;;;;;;;13.05;8.27;;;1.20;80.90;;;;;;5073479;28;20016;-72
2023/01/21 04:33:58;;;;;;;10.00;8.23;;;1.20;80.90;;;;;;5097028;28;20942;-63
2023/01/21 04:36:24;;;;;;;11.40;8.13;;;1.20;80.90;;;;;;5087632;28;20438;-73
2023/01/21 04:38:50;;;;;;;13.77;8.20;;;1.20;80.80;;;;;;5095370;28;20059;-73
2023/01/21 04:41:15;;;;;;;12.90;8.30;;;1.20;80.90;;;;;;5067215;28;20020;-63
2023/01/21 04:43:41;;;;;;;10.90;8.07;;;1.20;80.80;;;;;;5089243;28;20807;-73
2023/01/21 04:46:06;;;;;;;12.82;8.85;;;1.20;80.80;;;;;;5088256;28;20387;-73
2023/01/21 04:48:32;;;;;;;17.75;10.45;;;1.20;80.90;;;;;;5091106;28;20067;-73
2023/01/21 04:50:58;;;;;;;14.57;8.15;;;1.20;80.90;;;;;;5079821;28;20016;-73
2023/01/21 04:53:24;;;;;;;14.23;7.72;;;1.20;80.90;;;;;;5085564;28;20036;-73
2023/01/21 04:55:53;;;;;;;13.02;7.82;;;1.20;80.90;;;;;;5087239;28;20024;-63
2023/01/21 04:58:19;;;;;;;11.63;8.05;;;1.10;81.00;;;;;;5090424;28;20046;-63
2023/01/21 05:00:45;;;;;;;11.25;7.22;;;1.10;81.00;;;;;;5099587;28;20438;-63
2023/01/21 05:03:11;;;;;;;12.80;8.88;;;1.10;81.00;;;;;;5085713;28;20106;-63
2023/01/21 05:05:37;;;;;;;11.25;9.05;;;1.10;81.10;;;;;;5058738;28;20036;-63
2023/01/21 05:08:02;;;;;;;15.95;10.20;;;1.10;81.10;;;;;;5072156;28;20021;-63
2023/01/21 05:10:28;;;;;;;15.50;8.88;;;1.10;81.10;;;;;;5093674;28;20028;-64
2023/01/21 05:12:54;;;;;;;16.60;9.13;;;1.10;81.10;;;;;;5090241;28;20032;-63
2023/01/21 05:15:20;;;;;;;13.40;8.43;;;1.10;81.10;;;;;;5108460;28;20078;-63
2023/01/21 05:17:46;;;;;;;19.65;10.10;;;1.10;81.20;;;;;;5100884;28;20063;-62
2023/01/21 05:20:15;;;;;;;17.63;9.07;;;1.10;81.10;;;;;;5094553;28;20044;-63
2023/01/21 05:22:45;;;;;;;16.33;9.27;;;1.10;81.10;;;;;;5085764;28;20084;-63
2023/01/21 05:25:13;;;;;;;15.70;7.72;;;1.10;81.20;;;;;;5072499;28;20036;-63
2023/01/21 05:27:39;;;;;;;15.02;9.35;;;1.10;81.30;;;;;;5056330;28;20032;-62
2023/01/21 05:30:05;;;;;;;15.85;10.15;;;1.10;81.20;;;;;;5095211;28;20089;-63
2023/01/21 05:32:31;;;;;;;18.25;9.95;;;1.10;81.30;;;;;;5064928;28;20126;-63
2023/01/21 05:34:57;;;;;;;19.70;10.68;;;1.10;81.80;;;;;;5094880;28;20107;-63
2023/01/21 05:37:22;;;;;;;16.08;9.48;;;1.10;81.20;;;;;;5095017;28;20032;-64
2023/01/21 05:39:48;;;;;;;12.60;7.80;;;1.10;81.20;;;;;;5093253;28;20358;-64
2023/01/21 05:42:14;;;;;;;17.88;10.18;;;1.10;81.20;;;;;;5096265;28;20059;-73
2023/01/21 05:44:39;;;;;;;16.42;10.00;;;1.10;81.30;;;;;;5073660;28;20024;-73
2023/01/21 05:47:07;;;;;;;16.27;9.68;;;1.10;81.40;;;;;;5097470;28;20032;-63
2023/01/21 05:49:33;;;;;;;16.73;10.50;;;1.10;81.40;;;;;;5094840;28;20509;-64
2023/01/21 05:51:59;;;;;;;20.70;10.57;;;1.10;81.40;;;;;;5057271;28;20049;-63
2023/01/21 05:54:24;;;;;;;14.32;9.52;;;1.20;81.40;;;;;;5095553;28;20028;-73
2023/01/21 05:56:50;;;;;;;17.98;11.48;;;1.20;81.40;;;;;;5102920;28;20019;-62
2023/01/21 05:59:16;;;;;;;14.45;9.93;;;1.30;81.30;;;;;;5092419;28;20060;-62
2023/01/21 06:01:41;;;;;;;17.00;10.63;;;1.30;81.20;;;;;;5080121;28;20439;-73
2023/01/21 06:04:07;;;;;;;13.95;10.32;;;1.30;81.20;;;;;;5074342;28;20024;-73
2023/01/21 06:06:33;;;;;;;19.13;10.23;;;1.40;81.30;;;;;;5098462;28;20478;-63
2023/01/21 06:08:58;;;;;;;17.00;10.10;;;1.40;81.30;;;;;;5057859;28;20036;-63
2023/01/21 06:11:24;;;;;;;18.52;10.48;;;1.40;81.20;;;;;;5095467;28;20020;-63
2023/01/21 06:13:50;;;;;;;15.20;10.65;;;1.50;81.30;;;;;;5073630;28;20040;-73
2023/01/21 06:16:15;;;;;;;19.83;11.38;;;1.50;81.30;;;;;;5096992;28;20070;-63
2023/01/21 06:18:41;;;;;;;16.73;11.27;;;1.50;81.40;;;;;;5093778;28;20119;-73
2023/01/21 06:21:07;;;;;;;21.98;12.10;;;1.50;81.30;;;;;;5086322;28;20023;-73
2023/01/21 06:23:32;;;;;;;24.85;12.00;;;1.60;81.50;;;;;;5101154;28;20043;-63
2023/01/21 06:26:02;;;;;;;22.58;12.43;;;1.60;81.50;;;;;;5094018;28;20159;-64
2023/01/21 06:28:28;;;;;;;20.10;14.05;;;1.60;81.50;;;;;;5087485;28;20507;-73
2023/01/21 06:30:54;;;;;;;26.58;11.73;;;1.60;81.50;;;;;;5101742;28;20035;-73
2023/01/21 06:33:20;;;;;;;20.92;11.23;;;1.60;81.60;;;;;;5093052;28;20027;-64
2023/01/21 06:35:46;;;;;;;22.05;12.60;;;1.70;81.60;;;;;;5107096;28;20101;-62
2023/01/21 06:38:12;;;;;;;26.15;10.93;;;1.70;81.70;;;;;;5091299;28;20438;-63
2023/01/21 06:40:38;;;;;;;24.67;12.70;;;1.70;81.70;;;;;;5081436;28;20024;-63
2023/01/21 06:43:03;;;;;;;16.55;11.48;;;1.70;81.80;;;;;;5061772;28;20040;-62
2023/01/21 06:45:29;;;;;;;22.23;12.07;;;1.70;81.90;;;;;;5084494;28;20059;-63
2023/01/21 06:47:55;;;;;;;22.77;11.93;;;1.70;81.80;;;;;;5094394;28;20024;-63
2023/01/21 06:50:21;;;;;;;15.55;10.48;;;1.70;82.00;;;;;;5072308;28;20027;-63
2023/01/21 06:52:47;;;;;;;19.45;9.55;;;1.70;82.00;;;;;;5079976;28;20076;-63
2023/01/21 06:55:14;;;;;;;18.20;10.63;;;1.70;82.00;;;;;;5091145;28;20031;-63
2023/01/21 06:57:40;;;;;;;16.05;9.73;;;1.70;81.90;;;;;;5079099;28;20028;-63
2023/01/21 07:00:07;;;;;;;19.23;10.75;;;1.70;81.90;;;;;;5090622;28;20504;-63
2023/01/21 07:02:33;;;;;;;22.05;11.75;;;1.70;81.90;;;;;;5096234;28;20545;-63
2023/01/21 07:04:59;;;;;;;13.75;10.45;;;1.80;81.90;;;;;;5105647;28;20115;-63
2023/01/21 07:07:24;;;;;;;18.35;11.70;;;1.80;81.90;;;;;;5101148;28;20032;-63
2023/01/21 07:09:50;;;;;;;24.35;11.57;;;1.80;81.90;;;;;;5104560;28;20015;-73
2023/01/21 07:12:16;;;;;;;22.60;12.40;;;1.80;82.10;;;;;;5107983;28;20575;-62
2023/01/21 07:14:41;;;;;;;16.77;9.77;;;1.80;82.00;;;;;;5063289;28;20043;-62
2023/01/21 07:17:07;;;;;;;21.67;12.52;;;1.90;81.80;;;;;;5100549;28;20070;-62
2023/01/21 07:19:33;;;;;;;21.95;11.65;;;1.80;81.90;;;;;;5099642;28;20015;-62
2023/01/21 07:21:58;;;;;;;17.48;10.70;;;1.80;82.00;;;;;;5087788;28;20027;-73
2023/01/21 07:24:24;;;;;;;15.93;10.48;;;1.80;82.00;;;;;;5092497;28;20043;-63
2023/01/21 07:26:50;;;;;;;13.68;9.63;;;1.80;82.10;;;;;;5100073;28;20028;-62
2023/01/21 07:29:15;;;;;;;23.88;10.70;;;1.80;82.10;;;;;;5102089;28;20042;-63
2023/01/21 07:31:41;;;;;;;19.45;10.98;;;1.80;82.00;;;;;;5087670;28;20122;-72
2023/01/21 07:34:07;;;;;;;19.50;11.25;;;1.80;82.10;;;;;;5075925;28;20037;-62
2023/01/21 07:36:33;;;;;;;18.52;10.20;;;1.80;82.10;;;;;;5087129;28;20110;-62
2023/01/21 07:38:58;;;;;;;15.48;10.20;;;1.80;81.90;;;;;;5107320;28;20024;-63
2023/01/21 07:41:24;;;;;;;24.83;11.98;;;1.80;82.00;;;;;;5099420;28;20042;-63
2023/01/21 07:43:50;;;;;;;20.02;11.25;;;1.90;82.00;;;;;;5103194;28;20028;-64
2023/01/21 07:46:17;;;;;;;18.88;11.60;;;1.90;82.10;;;;;;5079073;28;20045;-63
2023/01/21 07:48:43;;;;;;;19.45;11.65;;;1.90;82.10;;;;;;5090093;28;20032;-63
2023/01/21 07:51:09;;;;;;;15.82;10.18;;;1.90;82.00;;;;;;5070430;28;20078;-63
2023/01/21 07:53:34;;;;;;;15.13;9.93;;;1.80;82.10;;;;;;5088072;28;20328;-67
2023/01/21 07:56:05;;;;;;;18.13;10.10;;;1.90;82.10;;;;;;5088291;28;20071;-73
2023/01/21 07:58:30;;;;;;;17.27;9.73;;;1.90;82.10;;;;;;5085973;28;20379;-71
2023/01/21 08:00:56;;;;;;;18.77;10.18;;;1.90;82.10;;;;;;5084934;28;20032;-64
2023/01/21 08:03:23;;;;;;;14.60;9.63;;;2.00;82.10;;;;;;5081256;28;20086;-65
2023/01/21 08:05:50;;;;;;;15.50;9.98;;;2.00;82.00;;;;;;5087335;28;20027;-65
2023/01/21 08:08:17;;;;;;;20.33;11.32;;;2.00;81.90;;;;;;5089610;28;20118;-75
2023/01/21 08:10:43;;;;;;;14.95;10.15;;;2.10;82.00;;;;;;5099827;28;20541;-74
2023/01/21 08:13:09;;;;;;;20.00;10.13;;;2.10;81.90;;;;;;5086801;28;20031;-74
2023/01/21 08:15:34;;;;;;;15.00;10.20;;;2.20;81.90;;;;;;5107577;28;20447;-64
2023/01/21 08:18:00;;;;;;;16.83;11.02;;;2.20;81.90;;;;;;5086721;28;20016;-64
2023/01/21 08:20:26;;;;;;;20.73;10.38;;;2.20;81.90;;;;;;5102405;28;20111;-65
2023/01/21 08:22:52;;;;;;;19.17;11.73;;;2.20;81.90;;;;;;5077769;28;20036;-73
2023/01/21 08:25:17;;;;;;;16.55;11.07;;;2.30;82.00;;;;;;5086335;28;20051;-70
2023/01/21 08:27:43;;;;;;;22.80;12.35;;;2.30;81.90;;;;;;5112187;27;20070;-73
2023/01/21 08:30:09;;;;;;;19.25;9.88;;;2.30;81.90;;;;;;5107566;28;20023;-72
2023/01/21 08:32:35;;;;;;;19.20;10.15;;;2.40;82.00;;;;;;5093601;28;20032;-71
2023/01/21 08:35:01;;;;;;;18.65;12.70;;;2.40;82.00;;;;;;5101717;28;20445;-75
2023/01/21 08:37:26;;;;;;;16.40;10.43;;;2.40;81.90;;;;;;5096747;28;20047;-75
2023/01/21 08:39:52;;;;;;;17.10;11.95;;;2.40;81.90;;;;;;5093021;28;20028;-64
2023/01/21 08:42:17;;;;;;;21.63;12.25;;;2.50;82.00;;;;;;5085732;28;20116;-74
2023/01/21 08:44:44;;;;;;;21.35;11.55;;;2.50;82.50;;;;;;5066852;28;20028;-73
2023/01/21 08:47:10;;;;;;;16.85;9.82;;;2.50;81.90;;;;;;5096772;28;20115;-67
2023/01/21 08:49:36;;;;;;;23.38;11.68;;;2.60;82.00;;;;;;5090153;28;20110;-69
2023/01/21 08:52:02;;;;;;;21.15;12.02;;;2.60;81.90;;;;;;5084485;28;20062;-71
2023/01/21 08:54:28;;;;;;;22.50;10.23;;;2.60;81.80;;;;;;5078978;28;20431;-69
2023/01/21 08:56:54;;;;;;;18.65;10.30;;;2.70;81.80;;;;;;5105276;28;20110;-69
2023/01/21 08:59:27;;;;;;;21.13;11.57;;;2.70;81.70;;;;;;5101244;28;20107;-71
2023/01/21 09:01:53;;;;;;;23.42;11.93;;;2.80;81.70;;;;;;5097031;28;20020;-71
2023/01/21 09:04:19;;;;;;;12.50;8.75;;;2.80;81.70;;;;;;5104704;28;20450;-69
2023/01/21 09:06:45;;;;;;;18.90;10.60;;;2.90;81.60;;;;;;5112317;28;20103;-70
2023/01/21 09:09:11;;;;;;;17.77;9.48;;;2.90;81.50;;;;;;5107214;28;20028;-72
2023/01/21 09:11:37;;;;;;;18.48;10.90;;;2.90;81.50;;;;;;5100959;28;20535;-72
2023/01/21 09:14:03;;;;;;;18.65;11.95;;;3.00;81.40;;;;;;5103916;28;20028;-73
2023/01/21 09:16:30;;;;;;;16.08;10.60;;;3.10;81.40;;;;;;5107226;28;20028;-74
2023/01/21 09:18:57;;;;;;;20.90;11.02;;;3.10;81.30;;;;;;5097426;28;20516;-64
2023/01/21 09:21:23;;;;;;;21.33;10.60;;;3.20;81.30;;;;;;5095350;28;20028;-64
2023/01/21 09:23:49;;;;;;;19.90;10.77;;;3.20;81.20;;;;;;5096188;28;20019;-65
2023/01/21 09:26:19;;;;;;;15.98;11.80;;;3.20;81.20;;;;;;5103008;28;20039;-64
2023/01/21 09:28:49;;;;;;;19.90;11.77;;;3.20;81.40;;;;;;5103507;28;20076;-65
2023/01/21 09:31:17;;;;;;;12.20;8.68;;;3.20;81.40;;;;;;5092059;28;20372;-73
2023/01/21 09:33:45;;;;;;;17.10;11.40;;;3.30;81.30;;;;;;5071295;28;20051;-64
2023/01/21 09:36:17;;;;;;;22.77;11.90;;;3.30;81.30;;;;;;5098619;28;20052;-73
2023/01/21 09:38:45;;;;;;;18.05;11.38;;;3.40;81.20;;;;;;5092713;28;20016;-64
2023/01/21 09:41:17;;;;;;;27.83;12.55;;;3.40;81.20;;;;;;5086868;28;20078;-75
2023/01/21 09:43:52;;;;;;;18.10;11.13;;;3.40;81.10;;;;;;5105047;28;20016;-74
2023/01/21 09:46:31;;;;;;;22.17;11.82;;;3.50;80.90;;;;;;5086381;28;20471;-73
2023/01/21 09:48:58;;;;;;;18.55;10.40;;;3.60;80.90;;;;;;5095757;28;20016;-63
2023/01/21 09:51:52;;;;;;;17.63;10.27;;;3.60;80.80;;;;;;5078012;28;20036;-64
2023/01/21 09:54:34;;;;;;;16.23;10.52;;;3.70;80.80;;;;;;5090297;28;20048;-65
2023/01/21 09:57:30;;;;;;;15.65;9.57;;;3.70;80.70;;;;;;5088743;28;20034;-64
2023/01/21 10:00:22;;;;;;;14.32;10.95;;;3.70;80.60;;;;;;5091227;28;20387;-72
2023/01/21 10:02:56;;;;;;;19.08;11.23;;;3.70;80.70;;;;;;5088657;28;20111;-63
2023/01/21 10:05:36;;;;;;;14.20;10.00;;;3.70;80.80;;;;;;5090651;28;20032;-64
2023/01/21 10:08:12;;;;;;;15.20;10.65;;;3.70;80.80;;;;;;5093956;28;20050;-64
2023/01/21 10:10:40;;;;;;;22.17;10.57;;;3.70;80.80;;;;;;5083769;28;20019;-65
2023/01/21 10:13:18;;;;;;;15.05;10.15;;;3.70;80.70;;;;;;5096534;28;20383;-65
2023/01/21 10:15:53;;;;;;;19.15;10.80;;;3.70;80.70;;;;;;5091374;28;20028;-65
2023/01/21 10:18:28;;;;;;;23.77;12.10;;;3.70;80.70;;;;;;5078540;28;20029;-65
2023/01/21 10:21:30;;;;;;;18.83;10.25;;;3.70;80.70;;;;;;5090703;28;20020;-67
2023/01/21 10:24:17;;;;;;;19.90;12.63;;;3.80;80.60;;;;;;5087160;28;20386;-70
2023/01/21 10:26:45;;;;;;;17.50;10.95;;;3.80;80.60;;;;;;5090363;28;20503;-70
2023/01/21 10:29:20;;;;;;;15.20;9.98;;;3.80;80.50;;;;;;5076528;28;20039;-70
2023/01/21 10:32:07;;;;;;;16.13;9.80;;;3.90;80.50;;;;;;5101869;28;20107;-67
2023/01/21 10:34:38;;;;;;;23.92;9.38;;;3.80;80.40;;;;;;5092298;28;20024;-68
2023/01/21 10:37:17;;;;;;;13.73;8.73;;;3.80;80.60;;;;;;5093268;28;20463;-70
2023/01/21 10:40:07;;;;;;;16.70;10.07;;;3.90;80.50;;;;;;5090902;28;20274;-67
2023/01/21 10:43:02;;;;;;;17.13;10.50;;;3.90;80.40;;;;;;5089697;28;20015;-65
2023/01/21 10:45:54;;;;;;;17.17;10.10;;;4.00;80.30;;;;;;5101901;28;20065;-64
2023/01/21 10:48:41;;;;;;;16.50;9.40;;;4.00;80.20;;;;;;5072993;28;20029;-65
2023/01/21 10:51:23;;;;;;;18.13;10.60;;;4.10;80.30;;;;;;5088954;28;20029;-64
2023/01/21 10:53:52;;;;;;;22.17;12.80;;;4.10;80.00;;;;;;5092568;28;20124;-63
2023/01/21 10:56:35;;;;;;;21.40;12.60;;;4.20;80.30;;;;;;5082184;28;20070;-62
2023/01/21 10:59:17;;;;;;;16.98;10.07;;;4.30;79.70;;;;;;5087654;28;20035;-64
2023/01/21 11:01:50;;;;;;;14.77;8.57;;;4.40;79.60;;;;;;5086076;28;20122;-65
2023/01/21 11:04:15;;;;;;;;;;;4.50;79.60;;;;;;5091008;28;20103;-71
2023/01/21 11:06:44;;;;;;;17.23;9.85;;;4.50;79.50;;;;;;5089976;28;19995;-71
2023/01/21 11:09:13;;;;;;;21.20;10.48;;;4.60;79.50;;;;;;5090472;28;20081;-71
2023/01/21 11:11:40;;;;;;;18.98;8.50;;;4.70;79.20;;;;;;5074170;28;20047;-71
2023/01/21 11:14:06;;;;;;;20.50;10.13;;;4.90;79.30;;;;;;5092281;28;20039;-69
2023/01/21 11:16:42;;;;;;;19.38;10.07;;;5.20;78.50;;;;;;5082118;28;20020;-74
2023/01/21 11:19:11;;;;;;;17.08;9.40;;;5.50;78.10;;;;;;5085897;28;20079;-72
2023/01/21 11:21:38;;;;;;;18.77;10.38;;;6.80;78.00;;;;;;5076736;28;20498;-70
2023/01/21 11:24:21;;;;;;;20.00;10.13;;;8.10;73.30;;;;;;5086875;28;20050;-61
2023/01/21 11:26:53;;;;;;;18.45;10.20;;;9.10;71.70;;;;;;5084170;28;20023;-62
2023/01/21 11:29:20;;;;;;;14.90;9.07;;;11.30;67.50;;;;;;5085860;28;20082;-61
2023/01/21 11:32:10;;;;;;;14.63;9.32;;;12.40;62.50;;;;;;5072464;28;20464;-61
2023/01/21 11:34:46;;;;;;;17.65;8.57;;;12.50;61.60;;;;;;5087498;28;20102;-62
2023/01/21 11:37:25;;;;;;;15.50;7.68;;;14.10;59.50;;;;;;5073744;28;20036;-62
2023/01/21 11:39:54;;;;;;;9.27;6.30;;;16.10;55.30;;;;;;5076711;28;20106;-62
2023/01/21 11:42:21;;;;;;;10.65;6.45;;;17.20;51.30;;;;;;5098901;28;20016;-62
2023/01/21 11:44:50;;;;;;;12.98;5.60;;;16.30;50.50;;;;;;5092238;28;20042;-70
2023/01/21 11:47:50;;;;;;;13.68;6.10;;;14.60;52.80;;;;;;5094755;28;20039;-71
2023/01/21 11:50:22;;;;;;;9.55;5.93;;;12.70;55.60;;;;;;5083705;28;20512;-70
2023/01/21 11:53:11;;;;;;;10.93;7.03;;;11.10;58.50;;;;;;5090380;28;20043;-70
2023/01/21 11:55:39;;;;;;;12.98;6.20;;;9.90;61.10;;;;;;5076560;28;20028;-70
2023/01/21 11:58:14;;;;;;;12.45;6.25;;;9.30;62.90;;;;;;5093071;28;20028;-67
2023/01/21 12:00:45;;;;;;;13.55;6.80;;;9.00;64.20;;;;;;5089628;28;20020;-69
2023/01/21 12:03:16;;;;;;;9.68;5.78;;;8.50;65.00;;;;;;5087661;28;20032;-69
2023/01/21 12:05:46;;;;;;;8.13;5.53;;;8.10;66.10;;;;;;5092509;28;20036;-70
2023/01/21 12:08:22;;;;;;;11.05;6.38;;;7.70;67.00;;;;;;5082869;28;20020;-70
2023/01/21 12:10:49;;;;;;;14.00;7.57;;;7.30;67.80;;;;;;5092577;28;20085;-69
2023/01/21 12:13:36;;;;;;;8.85;5.75;;;7.10;68.70;;;;;;5089932;28;20098;-68
2023/01/21 12:16:24;;;;;;;12.32;7.03;;;6.90;69.20;;;;;;5087031;28;20506;-68
2023/01/21 12:19:09;;;;;;;11.65;6.18;;;6.70;69.70;;;;;;5105046;28;20035;-70
2023/01/21 12:22:09;;;;;;;7.97;5.78;;;6.60;70.00;;;;;;5104096;28;20024;-71
2023/01/21 12:24:49;;;;;;;14.88;7.07;;;6.50;70.40;;;;;;5087052;28;20087;-70
2023/01/21 12:27:36;;;;;;;8.80;5.70;;;6.30;70.70;;;;;;5089321;28;20028;-70
2023/01/21 12:30:25;;;;;;;9.23;6.38;;;6.20;70.90;;;;;;5099624;28;20489;-70
2023/01/21 12:33:00;;;;;;;10.90;6.20;;;6.20;71.30;;;;;;5100331;28;20016;-70
2023/01/21 12:35:34;;;;;;;10.40;5.38;;;6.10;71.40;;;;;;5086726;28;20039;-61
2023/01/21 12:38:03;;;;;;;10.63;5.97;;;6.10;71.70;;;;;;5086765;28;20020;-61
2023/01/21 12:40:39;;;;;;;10.45;7.68;;;6.20;71.90;;;;;;5097471;28;20032;-61
2023/01/21 12:43:15;;;;;;;12.57;8.15;;;6.30;72.50;;;;;;5079427;28;20081;-68
2023/01/21 12:45:50;;;;;;;16.58;7.78;;;6.30;71.90;;;;;;5095768;28;20011;-70
2023/01/21 12:48:30;;;;;;;18.55;8.35;;;6.50;71.90;;;;;;5084641;28;20028;-70
2023/01/21 12:51:19;;;;;;;12.30;7.57;;;6.70;71.70;;;;;;5074170;28;20107;-69
2023/01/21 12:54:33;;;;;;;10.30;6.78;;;6.90;71.20;;;;;;5096825;28;20031;-70
2023/01/21 12:57:26;;;;;;;13.73;7.07;;;7.10;70.60;;;;;;5011069;28;20090;-70
2023/01/21 12:59:54;;;;;;;10.18;6.47;;;7.20;70.40;;;;;;5083297;28;20383;-70
2023/01/21 13:02:27;;;;;;;13.43;7.43;;;7.10;70.40;;;;;;5091996;28;20471;-69
2023/01/21 13:04:59;;;;;;;10.40;6.78;;;7.10;70.50;;;;;;5097741;28;20464;-69